sensor_id;sensor_type;location;lat;lon;timestamp;P1;durP1;ratioP1;P2;durP2;ratioP2
3643;SDS011;1838;50.742;7.158;2023-07-22T00:00:26;13.03;;;8.73;;
3643;SDS011;1838;50.742;7.158;2023-07-22T00:02:51;13.20;;;9.13;;
3643;SDS011;1838;50.742;7.158;2023-07-22T00:05:17;13.97;;;8.80;;
3643;SDS011;1838;50.742;7.158;2023-07-22T00:07:48;13.03;;;8.77;;
3643;SDS011;1838;50.742;7.158;2023-07-22T00:10:16;14.00;;;8.90;;
3643;SDS011;1838;50.742;7.158;2023-07-22T00:12:42;11.30;;;9.70;;
3643;SDS011;1838;50.742;7.158;2023-07-22T00:15:07;15.83;;;10.23;;
3643;SDS011;1838;50.742;7.158;2023-07-22T00:17:36;13.30;;;9.30;;
3643;SDS011;1838;50.742;7.158;2023-07-22T00:20:03;14.10;;;8.60;;
3643;SDS011;1838;50.742;7.158;2023-07-22T00:22:29;14.90;;;9.30;;
3643;SDS011;1838;50.742;7.158;2023-07-22T00:24:55;15.07;;;9.13;;
3643;SDS011;1838;50.742;7.158;2023-07-22T00:27:20;14.97;;;8.33;;
3643;SDS011;1838;50.742;7.158;2023-07-22T00:29:46;12.50;;;8.27;;
3643;SDS011;1838;50.742;7.158;2023-07-22T00:32:11;14.07;;;9.47;;
3643;SDS011;1838;50.742;7.158;2023-07-22T00:34:37;10.90;;;8.60;;
3643;SDS011;1838;50.742;7.158;2023-07-22T00:37:03;12.87;;;8.00;;
3643;SDS011;1838;50.742;7.158;2023-07-22T00:39:28;12.20;;;8.40;;
3643;SDS011;1838;50.742;7.158;2023-07-22T00:41:54;11.40;;;7.90;;
3643;SDS011;1838;50.742;7.158;2023-07-22T00:44:19;10.43;;;7.50;;
3643;SDS011;1838;50.742;7.158;2023-07-22T00:46:45;13.43;;;9.20;;
3643;SDS011;1838;50.742;7.158;2023-07-22T00:49:10;11.87;;;8.47;;
3643;SDS011;1838;50.742;7.158;2023-07-22T00:51:37;12.47;;;9.47;;
3643;SDS011;1838;50.742;7.158;2023-07-22T00:54:03;13.00;;;9.10;;
3643;SDS011;1838;50.742;7.158;2023-07-22T00:56:30;11.90;;;8.57;;
3643;SDS011;1838;50.742;7.158;2023-07-22T00:59:00;16.47;;;9.00;;
3643;SDS011;1838;50.742;7.158;2023-07-22T01:01:26;9.13;;;7.67;;
3643;SDS011;1838;50.742;7.158;2023-07-22T01:03:51;14.13;;;9.27;;
3643;SDS011;1838;50.742;7.158;2023-07-22T01:06:17;16.13;;;8.90;;
3643;SDS011;1838;50.742;7.158;2023-07-22T01:08:43;12.13;;;8.63;;
3643;SDS011;1838;50.742;7.158;2023-07-22T01:11:09;10.13;;;7.87;;
3643;SDS011;1838;50.742;7.158;2023-07-22T01:13:34;12.90;;;8.27;;
3643;SDS011;1838;50.742;7.158;2023-07-22T01:16:00;13.20;;;8.43;;
3643;SDS011;1838;50.742;7.158;2023-07-22T01:18:25;15.77;;;9.70;;
3643;SDS011;1838;50.742;7.158;2023-07-22T01:20:51;20.97;;;9.70;;
3643;SDS011;1838;50.742;7.158;2023-07-22T01:23:17;15.90;;;9.37;;
3643;SDS011;1838;50.742;7.158;2023-07-22T01:25:43;16.77;;;10.23;;
3643;SDS011;1838;50.742;7.158;2023-07-22T01:28:09;16.10;;;10.83;;
3643;SDS011;1838;50.742;7.158;2023-07-22T01:30:36;13.13;;;9.57;;
3643;SDS011;1838;50.742;7.158;2023-07-22T01:33:01;14.80;;;10.40;;
3643;SDS011;1838;50.742;7.158;2023-07-22T01:35:27;16.43;;;9.00;;
3643;SDS011;1838;50.742;7.158;2023-07-22T01:37:53;13.70;;;9.50;;
3643;SDS011;1838;50.742;7.158;2023-07-22T01:40:18;18.97;;;9.80;;
3643;SDS011;1838;50.742;7.158;2023-07-22T01:42:44;17.10;;;10.57;;
3643;SDS011;1838;50.742;7.158;2023-07-22T01:45:10;15.80;;;9.47;;
3643;SDS011;1838;50.742;7.158;2023-07-22T01:47:36;21.33;;;10.00;;
3643;SDS011;1838;50.742;7.158;2023-07-22T01:50:03;13.27;;;10.30;;
3643;SDS011;1838;50.742;7.158;2023-07-22T01:52:31;12.40;;;9.80;;
3643;SDS011;1838;50.742;7.158;2023-07-22T01:54:57;11.87;;;8.30;;
3643;SDS011;1838;50.742;7.158;2023-07-22T01:57:22;13.03;;;9.30;;
3643;SDS011;1838;50.742;7.158;2023-07-22T01:59:48;14.33;;;9.90;;
3643;SDS011;1838;50.742;7.158;2023-07-22T02:02:14;12.10;;;9.63;;
3643;SDS011;1838;50.742;7.158;2023-07-22T02:04:39;18.43;;;10.60;;
3643;SDS011;1838;50.742;7.158;2023-07-22T02:07:05;14.77;;;9.07;;
3643;SDS011;1838;50.742;7.158;2023-07-22T02:09:31;14.20;;;9.80;;
3643;SDS011;1838;50.742;7.158;2023-07-22T02:11:58;17.90;;;9.77;;
3643;SDS011;1838;50.742;7.158;2023-07-22T02:14:23;13.17;;;9.50;;
3643;SDS011;1838;50.742;7.158;2023-07-22T02:16:49;14.53;;;10.03;;
3643;SDS011;1838;50.742;7.158;2023-07-22T02:19:14;16.03;;;9.90;;
3643;SDS011;1838;50.742;7.158;2023-07-22T02:21:41;14.93;;;9.93;;
3643;SDS011;1838;50.742;7.158;2023-07-22T02:24:07;13.27;;;9.20;;
3643;SDS011;1838;50.742;7.158;2023-07-22T02:26:33;16.80;;;9.53;;
3643;SDS011;1838;50.742;7.158;2023-07-22T02:28:58;17.40;;;9.77;;
3643;SDS011;1838;50.742;7.158;2023-07-22T02:31:24;14.57;;;10.67;;
3643;SDS011;1838;50.742;7.158;2023-07-22T02:33:50;18.50;;;10.80;;
3643;SDS011;1838;50.742;7.158;2023-07-22T02:36:16;15.73;;;10.40;;
3643;SDS011;1838;50.742;7.158;2023-07-22T02:38:41;11.63;;;9.43;;
3643;SDS011;1838;50.742;7.158;2023-07-22T02:41:07;20.50;;;9.50;;
3643;SDS011;1838;50.742;7.158;2023-07-22T02:43:33;15.90;;;9.50;;
3643;SDS011;1838;50.742;7.158;2023-07-22T02:46:03;13.73;;;8.63;;
3643;SDS011;1838;50.742;7.158;2023-07-22T02:48:31;13.87;;;10.53;;
3643;SDS011;1838;50.742;7.158;2023-07-22T02:51:04;11.90;;;8.30;;
3643;SDS011;1838;50.742;7.158;2023-07-22T02:53:31;15.00;;;10.57;;
3643;SDS011;1838;50.742;7.158;2023-07-22T02:55:57;15.60;;;10.47;;
3643;SDS011;1838;50.742;7.158;2023-07-22T02:58:24;16.63;;;9.20;;
3643;SDS011;1838;50.742;7.158;2023-07-22T03:00:49;18.63;;;11.40;;
3643;SDS011;1838;50.742;7.158;2023-07-22T03:03:15;17.20;;;10.80;;
3643;SDS011;1838;50.742;7.158;2023-07-22T03:05:40;14.77;;;10.27;;
3643;SDS011;1838;50.742;7.158;2023-07-22T03:08:06;19.83;;;10.23;;
3643;SDS011;1838;50.742;7.158;2023-07-22T03:10:32;14.93;;;10.17;;
3643;SDS011;1838;50.742;7.158;2023-07-22T03:12:58;13.27;;;9.50;;
3643;SDS011;1838;50.742;7.158;2023-07-22T03:15:24;16.13;;;10.97;;
3643;SDS011;1838;50.742;7.158;2023-07-22T03:17:51;16.73;;;10.53;;
3643;SDS011;1838;50.742;7.158;2023-07-22T03:20:17;16.67;;;10.37;;
3643;SDS011;1838;50.742;7.158;2023-07-22T03:22:44;17.93;;;9.73;;
3643;SDS011;1838;50.742;7.158;2023-07-22T03:25:11;13.47;;;9.20;;
3643;SDS011;1838;50.742;7.158;2023-07-22T03:27:37;18.87;;;10.47;;
3643;SDS011;1838;50.742;7.158;2023-07-22T03:30:04;15.53;;;11.00;;
3643;SDS011;1838;50.742;7.158;2023-07-22T03:32:35;18.33;;;10.93;;
3643;SDS011;1838;50.742;7.158;2023-07-22T03:35:01;14.00;;;10.20;;
3643;SDS011;1838;50.742;7.158;2023-07-22T03:37:27;15.60;;;9.40;;
3643;SDS011;1838;50.742;7.158;2023-07-22T03:39:52;20.73;;;11.13;;
3643;SDS011;1838;50.742;7.158;2023-07-22T03:42:18;14.30;;;10.40;;
3643;SDS011;1838;50.742;7.158;2023-07-22T03:44:44;17.93;;;11.33;;
3643;SDS011;1838;50.742;7.158;2023-07-22T03:47:09;12.50;;;10.00;;
3643;SDS011;1838;50.742;7.158;2023-07-22T03:49:35;17.07;;;10.50;;
3643;SDS011;1838;50.742;7.158;2023-07-22T03:52:00;14.10;;;10.43;;
3643;SDS011;1838;50.742;7.158;2023-07-22T03:54:26;15.23;;;11.00;;
3643;SDS011;1838;50.742;7.158;2023-07-22T03:56:51;17.63;;;10.50;;
3643;SDS011;1838;50.742;7.158;2023-07-22T03:59:17;22.03;;;10.50;;
3643;SDS011;1838;50.742;7.158;2023-07-22T04:01:42;12.77;;;9.30;;
3643;SDS011;1838;50.742;7.158;2023-07-22T04:04:08;16.10;;;9.53;;
3643;SDS011;1838;50.742;7.158;2023-07-22T04:06:33;15.10;;;10.40;;
3643;SDS011;1838;50.742;7.158;2023-07-22T04:08:59;11.73;;;8.90;;
3643;SDS011;1838;50.742;7.158;2023-07-22T04:11:25;14.77;;;9.60;;
3643;SDS011;1838;50.742;7.158;2023-07-22T04:13:52;11.67;;;8.70;;
3643;SDS011;1838;50.742;7.158;2023-07-22T04:16:17;13.60;;;9.77;;
3643;SDS011;1838;50.742;7.158;2023-07-22T04:18:43;15.30;;;10.10;;
3643;SDS011;1838;50.742;7.158;2023-07-22T04:21:08;13.30;;;9.47;;
3643;SDS011;1838;50.742;7.158;2023-07-22T04:23:34;15.33;;;9.83;;
3643;SDS011;1838;50.742;7.158;2023-07-22T04:26:01;16.00;;;10.70;;
3643;SDS011;1838;50.742;7.158;2023-07-22T04:28:29;17.40;;;9.70;;
3643;SDS011;1838;50.742;7.158;2023-07-22T04:30:56;12.07;;;9.80;;
3643;SDS011;1838;50.742;7.158;2023-07-22T04:33:23;15.20;;;10.30;;
3643;SDS011;1838;50.742;7.158;2023-07-22T04:35:49;17.33;;;10.33;;
3643;SDS011;1838;50.742;7.158;2023-07-22T04:38:16;11.70;;;9.17;;
3643;SDS011;1838;50.742;7.158;2023-07-22T04:40:44;17.33;;;9.03;;
3643;SDS011;1838;50.742;7.158;2023-07-22T04:43:09;12.97;;;9.07;;
3643;SDS011;1838;50.742;7.158;2023-07-22T04:45:35;17.93;;;10.80;;
3643;SDS011;1838;50.742;7.158;2023-07-22T04:48:01;16.60;;;10.20;;
3643;SDS011;1838;50.742;7.158;2023-07-22T04:50:27;20.20;;;10.67;;
3643;SDS011;1838;50.742;7.158;2023-07-22T04:52:53;13.93;;;9.57;;
3643;SDS011;1838;50.742;7.158;2023-07-22T04:55:19;12.37;;;9.87;;
3643;SDS011;1838;50.742;7.158;2023-07-22T04:57:45;14.10;;;9.83;;
3643;SDS011;1838;50.742;7.158;2023-07-22T05:00:11;13.20;;;9.53;;
3643;SDS011;1838;50.742;7.158;2023-07-22T05:02:44;22.93;;;11.10;;
3643;SDS011;1838;50.742;7.158;2023-07-22T05:05:13;18.00;;;11.10;;
3643;SDS011;1838;50.742;7.158;2023-07-22T05:07:39;16.50;;;11.47;;
3643;SDS011;1838;50.742;7.158;2023-07-22T05:10:05;13.70;;;9.50;;
3643;SDS011;1838;50.742;7.158;2023-07-22T05:12:32;15.20;;;9.30;;
3643;SDS011;1838;50.742;7.158;2023-07-22T05:14:57;15.20;;;10.50;;
3643;SDS011;1838;50.742;7.158;2023-07-22T05:17:23;14.90;;;11.07;;
3643;SDS011;1838;50.742;7.158;2023-07-22T05:19:50;13.37;;;9.80;;
3643;SDS011;1838;50.742;7.158;2023-07-22T05:22:16;11.90;;;9.43;;
3643;SDS011;1838;50.742;7.158;2023-07-22T05:24:42;13.30;;;9.20;;
3643;SDS011;1838;50.742;7.158;2023-07-22T05:27:08;11.50;;;8.30;;
3643;SDS011;1838;50.742;7.158;2023-07-22T05:29:33;12.80;;;8.80;;
3643;SDS011;1838;50.742;7.158;2023-07-22T05:31:59;13.73;;;9.60;;
3643;SDS011;1838;50.742;7.158;2023-07-22T05:34:24;13.33;;;9.13;;
3643;SDS011;1838;50.742;7.158;2023-07-22T05:36:50;13.03;;;9.20;;
3643;SDS011;1838;50.742;7.158;2023-07-22T05:39:15;11.50;;;8.20;;
3643;SDS011;1838;50.742;7.158;2023-07-22T05:41:43;13.07;;;8.33;;
3643;SDS011;1838;50.742;7.158;2023-07-22T05:44:08;12.23;;;8.03;;
3643;SDS011;1838;50.742;7.158;2023-07-22T05:46:34;10.60;;;8.43;;
3643;SDS011;1838;50.742;7.158;2023-07-22T05:48:59;13.37;;;8.17;;
3643;SDS011;1838;50.742;7.158;2023-07-22T05:51:25;10.67;;;8.00;;
3643;SDS011;1838;50.742;7.158;2023-07-22T05:53:51;12.23;;;7.77;;
3643;SDS011;1838;50.742;7.158;2023-07-22T05:56:17;9.80;;;7.73;;
3643;SDS011;1838;50.742;7.158;2023-07-22T05:58:42;12.97;;;8.67;;
3643;SDS011;1838;50.742;7.158;2023-07-22T06:01:08;12.60;;;7.87;;
3643;SDS011;1838;50.742;7.158;2023-07-22T06:03:34;10.13;;;7.70;;
3643;SDS011;1838;50.742;7.158;2023-07-22T06:05:59;10.63;;;7.87;;
3643;SDS011;1838;50.742;7.158;2023-07-22T06:08:25;12.20;;;7.97;;
3643;SDS011;1838;50.742;7.158;2023-07-22T06:10:50;13.10;;;7.33;;
3643;SDS011;1838;50.742;7.158;2023-07-22T06:13:16;8.50;;;6.10;;
3643;SDS011;1838;50.742;7.158;2023-07-22T06:15:42;8.30;;;5.87;;
3643;SDS011;1838;50.742;7.158;2023-07-22T06:18:07;9.07;;;7.00;;
3643;SDS011;1838;50.742;7.158;2023-07-22T06:20:34;9.50;;;7.10;;
3643;SDS011;1838;50.742;7.158;2023-07-22T06:23:00;8.87;;;7.30;;
3643;SDS011;1838;50.742;7.158;2023-07-22T06:25:27;8.83;;;7.07;;
3643;SDS011;1838;50.742;7.158;2023-07-22T06:27:52;7.87;;;6.23;;
3643;SDS011;1838;50.742;7.158;2023-07-22T06:30:19;10.80;;;7.20;;
3643;SDS011;1838;50.742;7.158;2023-07-22T06:32:44;16.73;;;8.30;;
3643;SDS011;1838;50.742;7.158;2023-07-22T06:35:10;13.03;;;6.60;;
3643;SDS011;1838;50.742;7.158;2023-07-22T06:37:35;8.57;;;6.67;;
3643;SDS011;1838;50.742;7.158;2023-07-22T06:40:01;14.17;;;6.90;;
3643;SDS011;1838;50.742;7.158;2023-07-22T06:42:27;7.57;;;6.77;;
3643;SDS011;1838;50.742;7.158;2023-07-22T06:44:52;8.43;;;6.43;;
3643;SDS011;1838;50.742;7.158;2023-07-22T06:47:18;9.17;;;7.57;;
3643;SDS011;1838;50.742;7.158;2023-07-22T06:49:44;7.07;;;6.13;;
3643;SDS011;1838;50.742;7.158;2023-07-22T06:52:09;9.97;;;6.30;;
3643;SDS011;1838;50.742;7.158;2023-07-22T06:54:35;6.77;;;6.07;;
3643;SDS011;1838;50.742;7.158;2023-07-22T06:57:00;10.80;;;7.30;;
3643;SDS011;1838;50.742;7.158;2023-07-22T06:59:26;8.30;;;6.00;;
3643;SDS011;1838;50.742;7.158;2023-07-22T07:01:52;6.37;;;5.73;;
3643;SDS011;1838;50.742;7.158;2023-07-22T07:04:17;7.67;;;6.60;;
3643;SDS011;1838;50.742;7.158;2023-07-22T07:06:43;10.03;;;6.70;;
3643;SDS011;1838;50.742;7.158;2023-07-22T07:09:10;7.93;;;6.20;;
3643;SDS011;1838;50.742;7.158;2023-07-22T07:11:36;11.17;;;6.17;;
3643;SDS011;1838;50.742;7.158;2023-07-22T07:14:02;5.30;;;4.80;;
3643;SDS011;1838;50.742;7.158;2023-07-22T07:16:29;14.40;;;5.50;;
3643;SDS011;1838;50.742;7.158;2023-07-22T07:18:56;6.50;;;5.67;;
3643;SDS011;1838;50.742;7.158;2023-07-22T07:21:23;8.83;;;5.90;;
3643;SDS011;1838;50.742;7.158;2023-07-22T07:23:48;7.40;;;5.80;;
3643;SDS011;1838;50.742;7.158;2023-07-22T07:26:14;8.87;;;7.23;;
3643;SDS011;1838;50.742;7.158;2023-07-22T07:28:40;7.27;;;5.90;;
3643;SDS011;1838;50.742;7.158;2023-07-22T07:31:06;5.80;;;5.20;;
3643;SDS011;1838;50.742;7.158;2023-07-22T07:33:32;8.70;;;5.50;;
3643;SDS011;1838;50.742;7.158;2023-07-22T07:35:58;9.57;;;6.33;;
3643;SDS011;1838;50.742;7.158;2023-07-22T07:38:24;8.27;;;5.70;;
3643;SDS011;1838;50.742;7.158;2023-07-22T07:40:55;9.63;;;6.17;;
3643;SDS011;1838;50.742;7.158;2023-07-22T07:43:22;6.73;;;5.73;;
3643;SDS011;1838;50.742;7.158;2023-07-22T07:45:47;5.80;;;5.30;;
3643;SDS011;1838;50.742;7.158;2023-07-22T07:48:13;8.37;;;5.60;;
3643;SDS011;1838;50.742;7.158;2023-07-22T07:50:38;7.80;;;5.30;;
3643;SDS011;1838;50.742;7.158;2023-07-22T07:53:04;6.70;;;5.73;;
3643;SDS011;1838;50.742;7.158;2023-07-22T07:55:29;5.93;;;5.30;;
3643;SDS011;1838;50.742;7.158;2023-07-22T07:57:55;8.07;;;5.70;;
3643;SDS011;1838;50.742;7.158;2023-07-22T08:00:20;5.80;;;5.00;;
3643;SDS011;1838;50.742;7.158;2023-07-22T08:02:46;8.00;;;6.10;;
3643;SDS011;1838;50.742;7.158;2023-07-22T08:05:12;7.43;;;5.30;;
3643;SDS011;1838;50.742;7.158;2023-07-22T08:07:38;9.90;;;5.67;;
3643;SDS011;1838;50.742;7.158;2023-07-22T08:10:04;7.50;;;5.93;;
3643;SDS011;1838;50.742;7.158;2023-07-22T08:12:32;7.97;;;5.90;;
3643;SDS011;1838;50.742;7.158;2023-07-22T08:14:58;7.60;;;5.67;;
3643;SDS011;1838;50.742;7.158;2023-07-22T08:17:24;9.13;;;6.03;;
3643;SDS011;1838;50.742;7.158;2023-07-22T08:19:49;8.90;;;5.70;;
3643;SDS011;1838;50.742;7.158;2023-07-22T08:22:15;8.20;;;5.70;;
3643;SDS011;1838;50.742;7.158;2023-07-22T08:24:40;5.80;;;5.30;;
3643;SDS011;1838;50.742;7.158;2023-07-22T08:27:06;9.93;;;6.63;;
3643;SDS011;1838;50.742;7.158;2023-07-22T08:29:31;6.37;;;5.63;;
3643;SDS011;1838;50.742;7.158;2023-07-22T08:31:57;6.97;;;6.27;;
3643;SDS011;1838;50.742;7.158;2023-07-22T08:34:23;6.10;;;5.50;;
3643;SDS011;1838;50.742;7.158;2023-07-22T08:36:49;9.10;;;5.97;;
3643;SDS011;1838;50.742;7.158;2023-07-22T08:39:14;6.97;;;6.27;;
3643;SDS011;1838;50.742;7.158;2023-07-22T08:41:40;7.30;;;5.57;;
3643;SDS011;1838;50.742;7.158;2023-07-22T08:44:08;7.70;;;5.70;;
3643;SDS011;1838;50.742;7.158;2023-07-22T08:46:38;6.63;;;6.03;;
3643;SDS011;1838;50.742;7.158;2023-07-22T08:49:06;6.23;;;5.53;;
3643;SDS011;1838;50.742;7.158;2023-07-22T08:51:33;6.20;;;5.70;;
3643;SDS011;1838;50.742;7.158;2023-07-22T08:54:00;13.67;;;6.10;;
3643;SDS011;1838;50.742;7.158;2023-07-22T08:56:27;6.67;;;5.97;;
3643;SDS011;1838;50.742;7.158;2023-07-22T08:58:54;6.07;;;5.60;;
3643;SDS011;1838;50.742;7.158;2023-07-22T09:01:20;9.87;;;5.73;;
3643;SDS011;1838;50.742;7.158;2023-07-22T09:03:48;10.50;;;6.50;;
3643;SDS011;1838;50.742;7.158;2023-07-22T09:06:17;7.10;;;5.93;;
3643;SDS011;1838;50.742;7.158;2023-07-22T09:08:43;6.13;;;5.53;;
3643;SDS011;1838;50.742;7.158;2023-07-22T09:11:10;7.00;;;5.37;;
3643;SDS011;1838;50.742;7.158;2023-07-22T09:13:36;6.10;;;5.07;;
3643;SDS011;1838;50.742;7.158;2023-07-22T09:16:04;8.13;;;6.20;;
3643;SDS011;1838;50.742;7.158;2023-07-22T09:18:32;8.00;;;5.80;;
3643;SDS011;1838;50.742;7.158;2023-07-22T09:20:58;11.57;;;6.83;;
3643;SDS011;1838;50.742;7.158;2023-07-22T09:23:33;7.10;;;5.70;;
3643;SDS011;1838;50.742;7.158;2023-07-22T09:26:13;6.47;;;5.50;;
3643;SDS011;1838;50.742;7.158;2023-07-22T09:28:49;8.53;;;5.43;;
3643;SDS011;1838;50.742;7.158;2023-07-22T09:31:22;7.87;;;6.00;;
3643;SDS011;1838;50.742;7.158;2023-07-22T09:33:49;10.57;;;5.73;;
3643;SDS011;1838;50.742;7.158;2023-07-22T09:36:16;4.90;;;4.43;;
3643;SDS011;1838;50.742;7.158;2023-07-22T09:38:41;6.00;;;5.50;;
3643;SDS011;1838;50.742;7.158;2023-07-22T09:41:07;5.60;;;5.10;;
3643;SDS011;1838;50.742;7.158;2023-07-22T09:43:37;6.60;;;4.70;;
3643;SDS011;1838;50.742;7.158;2023-07-22T09:46:07;6.13;;;5.17;;
3643;SDS011;1838;50.742;7.158;2023-07-22T09:48:40;6.00;;;5.00;;
3643;SDS011;1838;50.742;7.158;2023-07-22T09:51:11;5.67;;;5.10;;
3643;SDS011;1838;50.742;7.158;2023-07-22T09:53:38;4.83;;;4.30;;
3643;SDS011;1838;50.742;7.158;2023-07-22T09:56:09;4.67;;;4.30;;
3643;SDS011;1838;50.742;7.158;2023-07-22T09:58:34;6.03;;;4.03;;
3643;SDS011;1838;50.742;7.158;2023-07-22T10:01:01;6.13;;;4.17;;
3643;SDS011;1838;50.742;7.158;2023-07-22T10:03:28;6.90;;;4.43;;
3643;SDS011;1838;50.742;7.158;2023-07-22T10:05:55;5.60;;;4.50;;
3643;SDS011;1838;50.742;7.158;2023-07-22T10:08:25;4.53;;;4.13;;
3643;SDS011;1838;50.742;7.158;2023-07-22T10:10:55;5.30;;;4.80;;
3643;SDS011;1838;50.742;7.158;2023-07-22T10:13:22;5.77;;;4.50;;
3643;SDS011;1838;50.742;7.158;2023-07-22T10:15:49;6.50;;;4.67;;
3643;SDS011;1838;50.742;7.158;2023-07-22T10:18:14;4.77;;;4.17;;
3643;SDS011;1838;50.742;7.158;2023-07-22T10:20:41;3.40;;;2.90;;
3643;SDS011;1838;50.742;7.158;2023-07-22T10:23:07;4.03;;;3.10;;
3643;SDS011;1838;50.742;7.158;2023-07-22T10:25:33;3.83;;;3.37;;
3643;SDS011;1838;50.742;7.158;2023-07-22T10:28:00;3.77;;;3.17;;
3643;SDS011;1838;50.742;7.158;2023-07-22T10:30:25;4.70;;;3.17;;
3643;SDS011;1838;50.742;7.158;2023-07-22T10:32:51;7.00;;;3.30;;
3643;SDS011;1838;50.742;7.158;2023-07-22T10:37:56;3.53;;;3.23;;
3643;SDS011;1838;50.742;7.158;2023-07-22T10:40:44;4.57;;;3.17;;
3643;SDS011;1838;50.742;7.158;2023-07-22T10:43:11;3.00;;;2.70;;
3643;SDS011;1838;50.742;7.158;2023-07-22T10:45:41;3.20;;;2.90;;
3643;SDS011;1838;50.742;7.158;2023-07-22T10:48:08;4.13;;;3.00;;
3643;SDS011;1838;50.742;7.158;2023-07-22T10:50:42;3.53;;;3.23;;
3643;SDS011;1838;50.742;7.158;2023-07-22T10:53:27;2.83;;;2.63;;
3643;SDS011;1838;50.742;7.158;2023-07-22T10:56:14;3.33;;;3.03;;
3643;SDS011;1838;50.742;7.158;2023-07-22T11:06:32;2.43;;;1.80;;
3643;SDS011;1838;50.742;7.158;2023-07-22T11:08:58;2.03;;;1.73;;
3643;SDS011;1838;50.742;7.158;2023-07-22T11:11:37;2.33;;;2.00;;
3643;SDS011;1838;50.742;7.158;2023-07-22T11:14:17;2.37;;;2.00;;
3643;SDS011;1838;50.742;7.158;2023-07-22T11:16:46;3.13;;;1.90;;
3643;SDS011;1838;50.742;7.158;2023-07-22T11:19:13;2.03;;;1.57;;
3643;SDS011;1838;50.742;7.158;2023-07-22T11:21:45;2.40;;;2.10;;
3643;SDS011;1838;50.742;7.158;2023-07-22T11:24:12;3.23;;;2.10;;
3643;SDS011;1838;50.742;7.158;2023-07-22T11:26:38;2.17;;;1.97;;
3643;SDS011;1838;50.742;7.158;2023-07-22T11:29:05;2.70;;;2.23;;
3643;SDS011;1838;50.742;7.158;2023-07-22T11:31:32;2.40;;;2.20;;
3643;SDS011;1838;50.742;7.158;2023-07-22T11:33:59;2.40;;;2.17;;
3643;SDS011;1838;50.742;7.158;2023-07-22T11:36:25;2.90;;;2.60;;
3643;SDS011;1838;50.742;7.158;2023-07-22T11:38:52;3.77;;;2.23;;
3643;SDS011;1838;50.742;7.158;2023-07-22T11:41:17;1.90;;;1.53;;
3643;SDS011;1838;50.742;7.158;2023-07-22T11:43:43;2.27;;;2.03;;
3643;SDS011;1838;50.742;7.158;2023-07-22T11:46:08;2.47;;;1.73;;
3643;SDS011;1838;50.742;7.158;2023-07-22T11:48:34;2.30;;;2.10;;
3643;SDS011;1838;50.742;7.158;2023-07-22T11:51:00;2.57;;;2.33;;
3643;SDS011;1838;50.742;7.158;2023-07-22T11:53:26;2.80;;;2.43;;
3643;SDS011;1838;50.742;7.158;2023-07-22T11:55:55;3.67;;;2.73;;
3643;SDS011;1838;50.742;7.158;2023-07-22T11:58:27;2.50;;;2.03;;
3643;SDS011;1838;50.742;7.158;2023-07-22T12:01:03;2.03;;;1.80;;
3643;SDS011;1838;50.742;7.158;2023-07-22T12:03:34;5.63;;;2.47;;
3643;SDS011;1838;50.742;7.158;2023-07-22T12:06:03;2.60;;;2.10;;
3643;SDS011;1838;50.742;7.158;2023-07-22T12:08:30;2.07;;;1.87;;
3643;SDS011;1838;50.742;7.158;2023-07-22T12:10:57;3.43;;;2.07;;
3643;SDS011;1838;50.742;7.158;2023-07-22T12:13:23;2.70;;;2.50;;
3643;SDS011;1838;50.742;7.158;2023-07-22T12:16:02;2.40;;;2.20;;
3643;SDS011;1838;50.742;7.158;2023-07-22T12:18:40;6.23;;;2.57;;
3643;SDS011;1838;50.742;7.158;2023-07-22T12:21:06;2.53;;;2.33;;
3643;SDS011;1838;50.742;7.158;2023-07-22T12:23:32;2.33;;;1.80;;
3643;SDS011;1838;50.742;7.158;2023-07-22T12:25:58;2.80;;;2.50;;
3643;SDS011;1838;50.742;7.158;2023-07-22T12:28:24;3.40;;;3.10;;
3643;SDS011;1838;50.742;7.158;2023-07-22T12:30:49;2.70;;;2.50;;
3643;SDS011;1838;50.742;7.158;2023-07-22T12:33:15;3.57;;;2.87;;
3643;SDS011;1838;50.742;7.158;2023-07-22T12:35:40;3.30;;;2.43;;
3643;SDS011;1838;50.742;7.158;2023-07-22T12:38:06;2.90;;;2.60;;
3643;SDS011;1838;50.742;7.158;2023-07-22T12:40:31;3.13;;;2.93;;
3643;SDS011;1838;50.742;7.158;2023-07-22T12:42:57;3.40;;;3.10;;
3643;SDS011;1838;50.742;7.158;2023-07-22T12:45:22;4.03;;;2.53;;
3643;SDS011;1838;50.742;7.158;2023-07-22T12:47:48;3.10;;;2.80;;
3643;SDS011;1838;50.742;7.158;2023-07-22T12:50:14;3.97;;;2.60;;
3643;SDS011;1838;50.742;7.158;2023-07-22T12:52:39;2.73;;;2.43;;
3643;SDS011;1838;50.742;7.158;2023-07-22T12:55:05;3.20;;;2.90;;
3643;SDS011;1838;50.742;7.158;2023-07-22T12:57:30;3.43;;;2.90;;
3643;SDS011;1838;50.742;7.158;2023-07-22T12:59:56;3.10;;;2.80;;
3643;SDS011;1838;50.742;7.158;2023-07-22T13:02:21;3.63;;;3.20;;
3643;SDS011;1838;50.742;7.158;2023-07-22T13:04:47;2.70;;;2.40;;
3643;SDS011;1838;50.742;7.158;2023-07-22T13:07:13;4.43;;;3.07;;
3643;SDS011;1838;50.742;7.158;2023-07-22T13:09:39;3.93;;;2.83;;
3643;SDS011;1838;50.742;7.158;2023-07-22T13:12:05;3.50;;;3.20;;
3643;SDS011;1838;50.742;7.158;2023-07-22T13:14:31;8.53;;;2.80;;
3643;SDS011;1838;50.742;7.158;2023-07-22T13:16:56;2.87;;;2.57;;
3643;SDS011;1838;50.742;7.158;2023-07-22T13:19:22;3.30;;;3.00;;
3643;SDS011;1838;50.742;7.158;2023-07-22T13:21:47;4.27;;;2.97;;
3643;SDS011;1838;50.742;7.158;2023-07-22T13:24:13;2.90;;;2.60;;
3643;SDS011;1838;50.742;7.158;2023-07-22T13:26:39;3.00;;;2.70;;
3643;SDS011;1838;50.742;7.158;2023-07-22T13:29:04;3.40;;;3.10;;
3643;SDS011;1838;50.742;7.158;2023-07-22T13:31:30;2.83;;;2.53;;
3643;SDS011;1838;50.742;7.158;2023-07-22T13:33:55;2.90;;;2.70;;
3643;SDS011;1838;50.742;7.158;2023-07-22T13:36:21;4.13;;;3.30;;
3643;SDS011;1838;50.742;7.158;2023-07-22T13:38:46;6.63;;;3.10;;
3643;SDS011;1838;50.742;7.158;2023-07-22T13:41:12;3.40;;;2.90;;
3643;SDS011;1838;50.742;7.158;2023-07-22T13:43:37;5.00;;;2.87;;
3643;SDS011;1838;50.742;7.158;2023-07-22T13:46:03;3.80;;;3.40;;
3643;SDS011;1838;50.742;7.158;2023-07-22T13:48:28;3.63;;;2.97;;
3643;SDS011;1838;50.742;7.158;2023-07-22T13:50:54;6.07;;;3.20;;
3643;SDS011;1838;50.742;7.158;2023-07-22T13:53:19;4.43;;;3.47;;
3643;SDS011;1838;50.742;7.158;2023-07-22T13:55:45;3.40;;;3.10;;
3643;SDS011;1838;50.742;7.158;2023-07-22T13:58:10;4.27;;;3.40;;
3643;SDS011;1838;50.742;7.158;2023-07-22T14:00:36;3.40;;;3.00;;
3643;SDS011;1838;50.742;7.158;2023-07-22T14:03:01;3.47;;;3.17;;
3643;SDS011;1838;50.742;7.158;2023-07-22T14:05:27;3.20;;;2.40;;
3643;SDS011;1838;50.742;7.158;2023-07-22T14:07:53;4.93;;;3.20;;
3643;SDS011;1838;50.742;7.158;2023-07-22T14:10:18;3.30;;;3.00;;
3643;SDS011;1838;50.742;7.158;2023-07-22T14:12:44;3.07;;;2.80;;
3643;SDS011;1838;50.742;7.158;2023-07-22T14:15:09;3.77;;;2.90;;
3643;SDS011;1838;50.742;7.158;2023-07-22T14:17:35;3.90;;;3.23;;
3643;SDS011;1838;50.742;7.158;2023-07-22T14:20:03;7.63;;;3.37;;
3643;SDS011;1838;50.742;7.158;2023-07-22T14:22:30;3.90;;;3.50;;
3643;SDS011;1838;50.742;7.158;2023-07-22T14:24:55;3.50;;;3.20;;
3643;SDS011;1838;50.742;7.158;2023-07-22T14:27:21;3.90;;;3.33;;
3643;SDS011;1838;50.742;7.158;2023-07-22T14:29:46;3.30;;;3.00;;
3643;SDS011;1838;50.742;7.158;2023-07-22T14:32:12;3.60;;;3.27;;
3643;SDS011;1838;50.742;7.158;2023-07-22T14:34:37;3.57;;;3.17;;
3643;SDS011;1838;50.742;7.158;2023-07-22T14:37:03;4.23;;;3.50;;
3643;SDS011;1838;50.742;7.158;2023-07-22T14:39:29;4.10;;;3.53;;
3643;SDS011;1838;50.742;7.158;2023-07-22T14:41:55;3.30;;;3.00;;
3643;SDS011;1838;50.742;7.158;2023-07-22T14:44:20;4.57;;;3.10;;
3643;SDS011;1838;50.742;7.158;2023-07-22T14:46:46;5.03;;;3.97;;
3643;SDS011;1838;50.742;7.158;2023-07-22T14:49:12;3.70;;;3.30;;
3643;SDS011;1838;50.742;7.158;2023-07-22T14:51:37;4.27;;;3.87;;
3643;SDS011;1838;50.742;7.158;2023-07-22T14:54:03;3.70;;;3.40;;
3643;SDS011;1838;50.742;7.158;2023-07-22T14:56:28;9.67;;;3.80;;
3643;SDS011;1838;50.742;7.158;2023-07-22T14:58:54;4.10;;;3.70;;
3643;SDS011;1838;50.742;7.158;2023-07-22T15:01:20;6.10;;;3.50;;
3643;SDS011;1838;50.742;7.158;2023-07-22T15:03:46;3.77;;;3.13;;
3643;SDS011;1838;50.742;7.158;2023-07-22T15:06:12;5.13;;;3.83;;
3643;SDS011;1838;50.742;7.158;2023-07-22T15:08:38;4.30;;;3.90;;
3643;SDS011;1838;50.742;7.158;2023-07-22T15:11:03;3.90;;;3.60;;
3643;SDS011;1838;50.742;7.158;2023-07-22T15:13:29;4.80;;;4.40;;